CheckWX is a tool to help pilots better visualize weather data.  It is not intended as a substitute for an official pre-flight weather briefing.

18:32:00 UTC

KHKS METAR
Hawkins Field Airport
Jackson, Mississippi, USA
Current

39 mins ago

KHKS 221753Z 02006KT 5SM BR OVC005 17/16 A3009 RMK AO2 SLP183 T01720161 10172 20111 58001
Observed
Feb-22 @ 17:53 UTC
Wind
  • 020° at 6 KTS
Visibility
5 SM
Flight Rules
IFR
Conditions
Mist
Cloud Levels
  • Overcast at 500' AGL
Temperature
17°C / 63°F
Dewpoint
16°C / 61°F
Humidity
94%
Altimeter
30.09" Hg
Pressure
1018.3 hPa
Previous

1 hour ago

KHKS 221727Z 07004KT 3SM BR OVC003 17/16 A3010 RMK AO2 T01670156
Observed
Feb-22 @ 17:27 UTC
Wind
  • 070° at 4 KTS
Visibility
3 SM
Flight Rules
LIFR
Conditions
Mist
Cloud Levels
  • Overcast at 300' AGL
Temperature
17°C / 63°F
Dewpoint
16°C / 61°F
Humidity
94%
Altimeter
30.1" Hg
Pressure
1019.32 hPa
Previous

1 hour ago

KHKS 221716Z 06005KT 1 1/2SM BR OVC003 16/16 A3010 RMK AO2 T01610156
Observed
Feb-22 @ 17:16 UTC
Wind
  • 060° at 5 KTS
Visibility
1 1/2 SM
Flight Rules
LIFR
Conditions
Mist
Cloud Levels
  • Overcast at 300' AGL
Temperature
16°C / 61°F
Dewpoint
16°C / 61°F
Humidity
100%
Altimeter
30.1" Hg
Pressure
1019.32 hPa